createdAt,value
2022-12-07T00:01:15.724Z,100.00
2022-12-07T00:03:44.378Z,100.00
2022-12-07T00:06:14.611Z,100.00
2022-12-07T00:08:42.035Z,100.00
2022-12-07T00:11:22.511Z,100.00
2022-12-07T00:13:58.209Z,100.00
2022-12-07T00:16:27.934Z,100.00
2022-12-07T00:18:55.186Z,100.00
2022-12-07T00:21:24.988Z,100.00
2022-12-07T00:23:53.040Z,100.00
2022-12-07T00:26:25.710Z,100.00
2022-12-07T00:29:02.093Z,100.00
2022-12-07T00:31:33.663Z,100.00
2022-12-07T00:34:00.368Z,100.00
2022-12-07T00:36:27.711Z,100.00
2022-12-07T00:38:55.581Z,100.00
2022-12-07T00:41:24.478Z,100.00
2022-12-07T00:43:51.660Z,100.00
2022-12-07T00:46:20.307Z,100.00
2022-12-07T00:48:51.952Z,100.00
2022-12-07T00:51:21.542Z,100.00
2022-12-07T00:53:48.698Z,100.00
2022-12-07T00:56:28.245Z,100.00
2022-12-07T00:59:00.867Z,100.00
2022-12-07T01:01:30.567Z,100.00
2022-12-07T01:03:58.084Z,100.00
2022-12-07T01:06:26.138Z,100.00
2022-12-07T01:08:53.441Z,100.00
2022-12-07T01:11:24.044Z,100.00
2022-12-07T01:13:52.659Z,100.00
2022-12-07T01:16:21.897Z,100.00
2022-12-07T01:18:53.518Z,100.00
2022-12-07T01:21:36.378Z,100.00
2022-12-07T01:24:05.309Z,100.00
2022-12-07T01:26:32.365Z,100.00
2022-12-07T01:29:01.054Z,100.00
2022-12-07T01:31:30.449Z,100.00
2022-12-07T01:33:59.338Z,100.00
2022-12-07T01:36:32.015Z,100.00
2022-12-07T01:39:02.381Z,100.00
2022-12-07T01:41:34.319Z,100.00
2022-12-07T01:44:23.117Z,100.00
2022-12-07T01:47:03.428Z,100.00
2022-12-07T01:49:38.565Z,100.00
2022-12-07T01:52:27.380Z,100.00
2022-12-07T01:54:59.885Z,100.00
2022-12-07T01:57:26.797Z,100.00
2022-12-07T01:59:56.205Z,100.00
2022-12-07T02:02:49.128Z,100.00
2022-12-07T02:05:17.914Z,100.00
2022-12-07T02:07:47.701Z,100.00
2022-12-07T02:10:19.399Z,100.00
2022-12-07T02:12:52.056Z,100.00
2022-12-07T02:15:22.358Z,100.00
2022-12-07T02:18:15.899Z,100.00
2022-12-07T02:21:20.890Z,100.00
2022-12-07T02:24:04.498Z,100.00
2022-12-07T02:26:57.205Z,100.00
2022-12-07T02:29:33.770Z,100.00
2022-12-07T02:32:12.234Z,100.00
2022-12-07T02:34:49.237Z,100.00
2022-12-07T02:37:40.481Z,100.00
2022-12-07T02:40:39.817Z,100.00
2022-12-07T02:43:16.191Z,100.00
2022-12-07T02:45:45.426Z,100.00
2022-12-07T02:48:16.547Z,100.00
2022-12-07T02:50:50.849Z,100.00
2022-12-07T02:53:37.601Z,100.00
2022-12-07T02:56:22.718Z,100.00
2022-12-07T02:59:27.226Z,100.00
2022-12-07T03:02:06.561Z,100.00
2022-12-07T03:05:07.117Z,100.00
2022-12-07T03:07:53.205Z,100.00
2022-12-07T03:10:27.546Z,100.00
2022-12-07T03:13:05.100Z,100.00
2022-12-07T03:15:51.501Z,100.00
2022-12-07T03:18:28.253Z,100.00
2022-12-07T03:21:02.185Z,100.00
2022-12-07T03:23:33.591Z,100.00
2022-12-07T03:26:04.226Z,100.00
2022-12-07T03:28:35.579Z,100.00
2022-12-07T03:31:48.414Z,100.00
2022-12-07T03:34:22.387Z,100.00
2022-12-07T03:37:09.039Z,100.00
2022-12-07T03:39:57.612Z,100.00
2022-12-07T03:42:24.453Z,100.00
2022-12-07T03:44:51.514Z,100.00
2022-12-07T03:47:33.899Z,100.00
2022-12-07T03:50:09.492Z,100.00
2022-12-07T03:52:42.814Z,100.00
2022-12-07T03:55:39.142Z,100.00
2022-12-07T03:58:11.041Z,100.00
2022-12-07T04:00:38.654Z,100.00
2022-12-07T04:03:05.317Z,100.00
2022-12-07T04:05:32.103Z,100.00
2022-12-07T04:07:58.866Z,100.00
2022-12-07T04:10:25.668Z,100.00
2022-12-07T04:12:52.395Z,100.00
2022-12-07T04:15:19.065Z,100.00
2022-12-07T04:17:45.736Z,100.00
2022-12-07T04:20:12.924Z,100.00
2022-12-07T04:22:39.847Z,100.00
2022-12-07T04:25:06.846Z,100.00
2022-12-07T04:27:33.566Z,100.00
2022-12-07T04:30:00.857Z,100.00
2022-12-07T04:32:28.090Z,100.00
2022-12-07T04:34:56.026Z,100.00
2022-12-07T04:37:23.819Z,100.00
2022-12-07T04:39:50.927Z,100.00
2022-12-07T04:42:17.605Z,100.00
2022-12-07T04:44:45.145Z,100.00
2022-12-07T04:47:12.315Z,100.00
2022-12-07T04:49:39.129Z,100.00
2022-12-07T04:52:05.983Z,100.00
2022-12-07T04:54:32.683Z,100.00
2022-12-07T04:56:59.572Z,100.00
2022-12-07T04:59:26.528Z,100.00
2022-12-07T05:01:53.301Z,100.00
2022-12-07T05:04:20.232Z,100.00
2022-12-07T05:06:47.179Z,100.00
2022-12-07T05:09:14.061Z,100.00
2022-12-07T05:11:41.049Z,100.00
2022-12-07T05:14:10.082Z,100.00
2022-12-07T05:16:37.832Z,100.00
2022-12-07T05:19:05.841Z,100.00
2022-12-07T05:21:32.810Z,100.00
2022-12-07T05:23:59.932Z,100.00
2022-12-07T05:26:27.253Z,100.00
2022-12-07T05:28:55.495Z,100.00
2022-12-07T05:31:23.878Z,100.00
2022-12-07T05:33:50.908Z,100.00
2022-12-07T05:36:18.179Z,100.00
2022-12-07T05:38:45.836Z,100.00
2022-12-07T05:41:34.603Z,100.00
2022-12-07T05:44:01.553Z,100.00
2022-12-07T05:46:28.326Z,100.00
2022-12-07T05:48:55.095Z,100.00
2022-12-07T05:51:22.104Z,100.00
2022-12-07T05:53:48.927Z,100.00
2022-12-07T05:56:16.052Z,100.00
2022-12-07T05:59:01.467Z,100.00
2022-12-07T06:01:41.635Z,100.00
2022-12-07T06:04:08.710Z,100.00
2022-12-07T06:06:38.318Z,100.00
2022-12-07T06:09:05.190Z,100.00
2022-12-07T06:11:50.558Z,100.00
2022-12-07T06:14:17.179Z,100.00
2022-12-07T06:16:44.191Z,100.00
2022-12-07T06:19:11.334Z,100.00
2022-12-07T06:21:38.442Z,100.00
2022-12-07T06:24:07.523Z,100.00
2022-12-07T06:26:34.606Z,100.00
2022-12-07T06:29:01.800Z,100.00
2022-12-07T06:31:40.522Z,100.00
2022-12-07T06:34:14.845Z,100.00
2022-12-07T06:36:43.387Z,100.00
2022-12-07T06:39:13.118Z,100.00
2022-12-07T06:41:42.796Z,100.00
2022-12-07T06:44:09.950Z,100.00
2022-12-07T06:46:36.780Z,100.00
2022-12-07T06:49:04.952Z,100.00
2022-12-07T06:51:33.269Z,100.00
2022-12-07T06:53:59.883Z,100.00
2022-12-07T06:56:26.510Z,100.00
2022-12-07T06:58:53.256Z,100.00
2022-12-07T07:01:19.995Z,100.00
2022-12-07T07:03:46.960Z,100.00
2022-12-07T07:06:15.561Z,100.00
2022-12-07T07:08:42.969Z,100.00
2022-12-07T07:11:10.560Z,100.00
2022-12-07T07:13:37.694Z,100.00
2022-12-07T07:16:05.653Z,100.00
2022-12-07T07:18:32.530Z,100.00
2022-12-07T07:20:59.247Z,100.00
2022-12-07T07:23:25.923Z,100.00
2022-12-07T07:25:53.063Z,100.00
2022-12-07T07:28:19.815Z,100.00
2022-12-07T07:30:46.978Z,100.00
2022-12-07T07:33:13.949Z,100.00
2022-12-07T07:35:40.785Z,100.00
2022-12-07T07:38:08.544Z,100.00
2022-12-07T07:40:36.262Z,100.00
2022-12-07T07:43:03.566Z,100.00
2022-12-07T07:45:30.771Z,100.00
2022-12-07T07:47:59.834Z,100.00
2022-12-07T07:50:27.100Z,100.00
2022-12-07T07:52:54.035Z,100.00
2022-12-07T07:55:20.881Z,100.00
2022-12-07T07:57:54.250Z,100.00
2022-12-07T08:00:22.355Z,100.00
2022-12-07T08:02:49.124Z,100.00
2022-12-07T08:05:16.711Z,100.00
2022-12-07T08:07:44.312Z,100.00
2022-12-07T08:10:13.458Z,100.00
2022-12-07T08:13:02.242Z,100.00
2022-12-07T08:15:31.275Z,100.00
2022-12-07T08:17:58.863Z,100.00
2022-12-07T08:20:26.257Z,100.00
2022-12-07T08:22:53.231Z,100.00
2022-12-07T08:25:22.437Z,100.00
2022-12-07T08:27:49.876Z,100.00
2022-12-07T08:30:16.646Z,100.00
2022-12-07T08:32:45.923Z,100.00
2022-12-07T08:35:13.385Z,100.00
2022-12-07T08:37:40.587Z,100.00
2022-12-07T08:40:09.522Z,100.00
2022-12-07T08:42:40.512Z,100.00
2022-12-07T08:45:11.371Z,100.00
2022-12-07T08:47:55.757Z,100.00
2022-12-07T08:50:23.586Z,100.00
2022-12-07T08:52:58.241Z,100.00
2022-12-07T08:55:26.332Z,99.88
2022-12-07T08:57:53.598Z,100.00
2022-12-07T09:00:20.846Z,98.14
2022-12-07T09:02:47.729Z,96.92
2022-12-07T09:05:17.440Z,94.69
2022-12-07T09:07:47.025Z,93.63
2022-12-07T09:10:14.741Z,94.42
2022-12-07T09:12:41.763Z,92.43
2022-12-07T09:15:12.247Z,90.06
2022-12-07T09:17:45.580Z,89.01
2022-12-07T09:20:13.391Z,88.22
2022-12-07T09:22:40.627Z,88.49
2022-12-07T09:25:08.330Z,87.54
2022-12-07T09:27:36.610Z,86.79
2022-12-07T09:30:05.690Z,85.71
2022-12-07T09:32:33.343Z,85.95
2022-12-07T09:35:00.755Z,86.71
2022-12-07T09:37:35.630Z,87.11
2022-12-07T09:40:04.518Z,86.63
2022-12-07T09:42:40.190Z,86.36
2022-12-07T09:45:30.511Z,86.39
2022-12-07T09:48:04.222Z,85.71
2022-12-07T09:50:31.387Z,84.82
2022-12-07T09:53:55.587Z,84.29
2022-12-07T09:56:25.394Z,84.96
2022-12-07T09:59:03.268Z,84.60
2022-12-07T10:01:33.273Z,84.50
2022-12-07T10:04:33.888Z,84.89
2022-12-07T10:07:12.961Z,83.40
2022-12-07T10:09:41.147Z,83.15
2022-12-07T10:12:16.012Z,83.25
2022-12-07T10:15:14.364Z,82.19
2022-12-07T10:17:58.934Z,81.27
2022-12-07T10:20:29.416Z,81.29
2022-12-07T10:23:13.874Z,81.69
2022-12-07T10:25:50.065Z,82.23
2022-12-07T10:28:18.751Z,81.74
2022-12-07T10:30:57.188Z,81.91
2022-12-07T10:33:37.318Z,81.53
2022-12-07T10:36:26.953Z,82.12
2022-12-07T10:39:25.001Z,81.88
2022-12-07T10:42:20.915Z,81.37
2022-12-07T10:45:15.824Z,81.25
2022-12-07T10:48:07.731Z,80.96
2022-12-07T10:51:17.227Z,80.40
2022-12-07T10:54:16.942Z,80.24
2022-12-07T10:57:06.296Z,80.22
2022-12-07T10:59:53.006Z,80.71
2022-12-07T11:02:49.856Z,80.13
2022-12-07T11:05:21.063Z,80.14
2022-12-07T11:07:57.442Z,80.55
2022-12-07T11:10:25.168Z,80.26
2022-12-07T11:13:11.648Z,79.63
2022-12-07T11:16:03.339Z,78.99
2022-12-07T11:18:40.618Z,78.50
2022-12-07T11:21:19.581Z,78.62
2022-12-07T11:23:55.432Z,78.71
2022-12-07T11:26:31.250Z,78.36
2022-12-07T11:29:21.784Z,78.94
2022-12-07T11:31:51.381Z,79.02
2022-12-07T11:34:55.956Z,79.37
2022-12-07T11:37:38.237Z,79.33
2022-12-07T11:40:36.260Z,79.33
2022-12-07T11:43:53.384Z,78.84
2022-12-07T11:46:30.693Z,77.92
2022-12-07T11:49:25.451Z,77.46
2022-12-07T11:52:08.418Z,77.60
2022-12-07T11:55:05.833Z,77.78
2022-12-07T11:57:46.282Z,77.74
2022-12-07T12:00:19.609Z,77.29
2022-12-07T12:03:30.710Z,76.61
2022-12-07T12:05:57.961Z,76.78
2022-12-07T12:15:17.616Z,76.86
2022-12-07T12:18:05.989Z,76.68
2022-12-07T12:20:39.156Z,77.24
2022-12-07T12:23:30.825Z,77.55
2022-12-07T12:26:08.279Z,78.24
2022-12-07T12:28:50.732Z,78.32
2022-12-07T12:31:59.913Z,78.22
2022-12-07T12:34:40.178Z,78.28
2022-12-07T12:37:34.491Z,78.60
2022-12-07T12:40:21.695Z,78.31
2022-12-07T12:42:57.364Z,78.02
2022-12-07T12:45:31.288Z,77.67
2022-12-07T12:48:25.754Z,78.16
2022-12-07T12:51:31.619Z,78.11
2022-12-07T12:54:08.944Z,77.59
2022-12-07T12:56:49.504Z,77.41
2022-12-07T12:59:32.260Z,78.27
2022-12-07T13:02:34.365Z,78.68
2022-12-07T13:05:13.102Z,79.00
2022-12-07T13:07:50.336Z,79.33
2022-12-07T13:10:33.063Z,79.03
2022-12-07T13:13:29.590Z,78.35
2022-12-07T13:16:10.917Z,79.05
2022-12-07T13:18:38.900Z,79.60
2022-12-07T13:21:09.129Z,80.17
2022-12-07T13:23:44.881Z,80.79
2022-12-07T13:26:39.544Z,81.33
2022-12-07T13:29:22.923Z,81.78
2022-12-07T13:31:56.103Z,82.55
2022-12-07T13:34:39.354Z,83.13
2022-12-07T13:37:18.475Z,83.56
2022-12-07T13:40:23.555Z,83.93
2022-12-07T13:43:01.843Z,84.82
2022-12-07T13:45:50.156Z,85.28
2022-12-07T13:48:24.881Z,85.38
2022-12-07T13:50:55.680Z,85.87
2022-12-07T13:53:23.853Z,86.02
2022-12-07T13:55:54.479Z,86.24
2022-12-07T13:58:27.479Z,86.42
2022-12-07T14:00:54.917Z,86.80
2022-12-07T14:03:32.083Z,87.12
2022-12-07T14:06:07.604Z,87.54
2022-12-07T14:08:34.542Z,87.95
2022-12-07T14:11:01.737Z,88.37
2022-12-07T14:13:34.525Z,88.31
2022-12-07T14:16:22.242Z,88.49
2022-12-07T14:18:49.536Z,88.85
2022-12-07T14:21:20.458Z,89.27
2022-12-07T14:24:03.052Z,89.70
2022-12-07T14:26:29.969Z,90.07
2022-12-07T14:29:25.578Z,90.32
2022-12-07T14:31:54.079Z,90.51
2022-12-07T14:34:22.749Z,90.52
2022-12-07T14:36:50.481Z,90.76
2022-12-07T14:39:17.437Z,90.93
2022-12-07T14:41:53.712Z,91.32
2022-12-07T14:44:25.673Z,91.29
2022-12-07T14:49:43.599Z,92.32
2022-12-07T14:55:24.032Z,92.72
2022-12-07T14:57:51.669Z,92.58
2022-12-07T15:00:24.151Z,92.68
2022-12-07T15:02:52.520Z,93.03
2022-12-07T15:05:19.977Z,93.21
2022-12-07T15:19:29.566Z,94.09
2022-12-07T15:21:50.292Z,95.17
2022-12-07T15:24:28.462Z,95.26
2022-12-07T15:26:58.405Z,95.42
2022-12-07T15:29:26.293Z,95.31
2022-12-07T15:31:56.970Z,95.57
2022-12-07T15:34:31.857Z,96.11
2022-12-07T15:37:03.655Z,95.87
2022-12-07T15:39:47.902Z,95.86
2022-12-07T15:42:20.564Z,95.90
2022-12-07T15:45:06.384Z,96.31
2022-12-07T15:48:19.947Z,96.40
2022-12-07T15:50:32.105Z,96.18
2022-12-07T15:52:59.317Z,96.24
2022-12-07T15:55:29.756Z,96.39
2022-12-07T15:58:15.456Z,96.25
2022-12-07T16:00:47.650Z,96.70
2022-12-07T16:03:17.808Z,96.69
2022-12-07T16:05:55.539Z,96.85
2022-12-07T16:08:29.452Z,96.99
2022-12-07T16:11:06.845Z,97.32
2022-12-07T16:13:36.850Z,97.37
2022-12-07T16:16:08.685Z,97.07
2022-12-07T16:18:38.451Z,97.16
2022-12-07T16:21:07.888Z,97.21
2022-12-07T16:23:39.277Z,97.24
2022-12-07T16:26:24.468Z,97.27
2022-12-07T16:29:05.637Z,97.59
2022-12-07T16:31:34.328Z,97.89
2022-12-07T16:34:01.455Z,97.81
2022-12-07T16:39:18.819Z,98.03
2022-12-07T16:41:46.287Z,98.12
2022-12-07T16:44:14.295Z,98.16
2022-12-07T16:46:42.630Z,98.43
2022-12-07T16:49:14.665Z,98.27
2022-12-07T16:51:43.481Z,98.22
2022-12-07T16:54:12.943Z,98.48
2022-12-07T16:56:47.720Z,98.53
2022-12-07T16:59:40.101Z,98.72
2022-12-07T17:02:07.137Z,98.83
2022-12-07T17:04:35.352Z,99.16
2022-12-07T17:07:02.309Z,99.03
2022-12-07T17:09:29.498Z,99.14
2022-12-07T17:11:58.586Z,99.50
2022-12-07T17:14:44.488Z,99.53
2022-12-07T17:17:11.596Z,99.57
2022-12-07T17:19:42.756Z,99.73
2022-12-07T17:22:13.185Z,99.86
2022-12-07T17:24:49.400Z,99.92
2022-12-07T17:27:20.120Z,99.91
2022-12-07T17:29:59.298Z,99.97
2022-12-07T17:32:29.675Z,99.97
2022-12-07T17:35:06.633Z,100.00
2022-12-07T17:37:35.430Z,100.00
2022-12-07T17:40:04.670Z,100.00
2022-12-07T17:42:47.542Z,100.00
2022-12-07T17:45:14.697Z,100.00
2022-12-07T17:47:41.748Z,100.00
2022-12-07T17:50:10.330Z,100.00
2022-12-07T17:53:02.560Z,100.00
2022-12-07T17:55:39.018Z,100.00
2022-12-07T17:58:20.407Z,100.00
2022-12-07T18:00:47.381Z,100.00
2022-12-07T18:03:15.498Z,100.00
2022-12-07T18:05:44.808Z,100.00
2022-12-07T18:08:12.033Z,100.00
2022-12-07T18:10:41.322Z,100.00
2022-12-07T18:13:26.922Z,100.00
2022-12-07T18:15:57.850Z,100.00
2022-12-07T18:18:25.111Z,100.00
2022-12-07T18:20:52.265Z,100.00
2022-12-07T18:23:21.775Z,100.00
2022-12-07T18:25:50.403Z,100.00
2022-12-07T18:28:17.661Z,100.00
2022-12-07T18:31:14.192Z,100.00
2022-12-07T18:33:38.217Z,100.00
2022-12-07T18:36:05.997Z,100.00
2022-12-07T18:38:33.568Z,100.00
2022-12-07T18:41:25.006Z,100.00
2022-12-07T18:43:51.954Z,100.00
2022-12-07T18:46:21.039Z,100.00
2022-12-07T18:48:49.956Z,100.00
2022-12-07T18:51:28.781Z,100.00
2022-12-07T18:54:00.796Z,100.00
2022-12-07T18:56:28.721Z,100.00
2022-12-07T18:59:17.183Z,100.00
2022-12-07T19:01:47.944Z,100.00
2022-12-07T19:04:16.074Z,100.00
2022-12-07T19:06:45.056Z,100.00
2022-12-07T19:09:13.013Z,100.00
2022-12-07T19:11:49.180Z,100.00
2022-12-07T19:14:16.869Z,100.00
2022-12-07T19:16:44.756Z,100.00
2022-12-07T19:19:15.260Z,100.00
2022-12-07T19:21:44.578Z,100.00
2022-12-07T19:24:11.624Z,100.00
2022-12-07T19:26:38.587Z,100.00
2022-12-07T19:29:05.474Z,100.00
2022-12-07T19:31:32.598Z,100.00
2022-12-07T19:34:01.802Z,100.00
2022-12-07T19:36:28.712Z,100.00
2022-12-07T19:38:55.715Z,100.00
2022-12-07T19:41:34.704Z,100.00
2022-12-07T19:44:04.897Z,100.00
2022-12-07T19:46:32.104Z,100.00
2022-12-07T19:49:00.234Z,100.00
2022-12-07T19:51:27.553Z,100.00
2022-12-07T19:54:02.073Z,100.00
2022-12-07T19:56:30.873Z,100.00
2022-12-07T19:59:01.573Z,100.00
2022-12-07T20:01:30.274Z,100.00
2022-12-07T20:03:57.455Z,100.00
2022-12-07T20:06:25.264Z,100.00
2022-12-07T20:08:56.220Z,100.00
2022-12-07T20:11:42.112Z,100.00
2022-12-07T20:14:18.458Z,100.00
2022-12-07T20:16:48.721Z,100.00
2022-12-07T20:19:16.811Z,100.00
2022-12-07T20:21:46.579Z,100.00
2022-12-07T20:24:18.963Z,100.00
2022-12-07T20:26:50.765Z,100.00
2022-12-07T20:29:20.380Z,100.00
2022-12-07T20:31:58.129Z,100.00
2022-12-07T20:34:25.997Z,100.00
2022-12-07T20:36:55.975Z,100.00
2022-12-07T20:39:23.889Z,100.00
2022-12-07T20:42:09.680Z,100.00
2022-12-07T20:44:36.600Z,100.00
2022-12-07T20:47:05.882Z,100.00
2022-12-07T20:49:33.352Z,100.00
2022-12-07T20:52:00.409Z,100.00
2022-12-07T20:54:27.502Z,100.00
2022-12-07T20:56:55.359Z,100.00
2022-12-07T20:59:26.107Z,100.00
2022-12-07T21:01:53.181Z,100.00
2022-12-07T21:04:22.852Z,100.00
2022-12-07T21:06:49.711Z,100.00
2022-12-07T21:09:16.578Z,100.00
2022-12-07T21:11:43.434Z,100.00
2022-12-07T21:14:11.317Z,100.00
2022-12-07T21:16:38.325Z,100.00
2022-12-07T21:19:05.173Z,100.00
2022-12-07T21:21:33.062Z,100.00
2022-12-07T21:24:03.452Z,100.00
2022-12-07T21:26:33.214Z,100.00
2022-12-07T21:29:00.642Z,100.00
2022-12-07T21:31:27.643Z,100.00
2022-12-07T21:33:54.481Z,100.00
2022-12-07T21:36:25.439Z,100.00
2022-12-07T21:38:52.574Z,100.00
2022-12-07T21:41:25.799Z,100.00
2022-12-07T21:43:53.256Z,100.00
2022-12-07T21:46:25.645Z,100.00
2022-12-07T21:48:58.255Z,100.00
2022-12-07T21:51:27.764Z,100.00
2022-12-07T21:53:57.981Z,100.00
2022-12-07T21:56:34.158Z,100.00
2022-12-07T21:59:05.561Z,100.00
2022-12-07T22:01:37.403Z,100.00
2022-12-07T22:04:16.445Z,100.00
2022-12-07T22:06:43.637Z,100.00
2022-12-07T22:09:11.270Z,100.00
2022-12-07T22:11:38.288Z,100.00
2022-12-07T22:14:24.450Z,100.00
2022-12-07T22:16:52.054Z,100.00
2022-12-07T22:19:19.421Z,100.00
2022-12-07T22:21:46.874Z,100.00
2022-12-07T22:24:14.612Z,100.00
2022-12-07T22:26:43.030Z,100.00
2022-12-07T22:29:11.783Z,100.00
2022-12-07T22:31:40.452Z,100.00
2022-12-07T22:34:17.096Z,100.00
2022-12-07T22:36:44.709Z,100.00
2022-12-07T22:39:11.820Z,100.00
2022-12-07T22:41:38.771Z,100.00
2022-12-07T22:44:07.207Z,100.00
2022-12-07T22:46:35.234Z,100.00
2022-12-07T22:49:03.085Z,100.00
2022-12-07T22:51:33.236Z,100.00
2022-12-07T22:54:02.338Z,100.00
2022-12-07T22:56:42.319Z,100.00
2022-12-07T22:59:22.163Z,100.00
2022-12-07T23:01:53.144Z,100.00
2022-12-07T23:04:20.388Z,100.00
2022-12-07T23:06:47.451Z,100.00
2022-12-07T23:09:14.466Z,100.00
2022-12-07T23:12:01.589Z,100.00
2022-12-07T23:14:32.785Z,100.00
2022-12-07T23:17:09.052Z,100.00
2022-12-07T23:19:36.032Z,100.00
2022-12-07T23:22:03.153Z,100.00
2022-12-07T23:24:30.239Z,100.00
2022-12-07T23:26:57.029Z,100.00
2022-12-07T23:29:23.810Z,100.00
2022-12-07T23:31:50.719Z,100.00
2022-12-07T23:34:17.731Z,100.00
2022-12-07T23:36:44.559Z,100.00
2022-12-07T23:39:11.743Z,100.00
2022-12-07T23:41:38.705Z,100.00
2022-12-07T23:44:05.700Z,100.00
2022-12-07T23:46:33.516Z,100.00
2022-12-07T23:49:02.884Z,100.00
2022-12-07T23:51:29.906Z,100.00
2022-12-07T23:53:59.238Z,100.00
2022-12-07T23:56:28.623Z,100.00
2022-12-07T23:58:57.211Z,100.00
